createdAt,value
2019-01-21T00:00:42.871Z,101670.55
2019-01-21T00:03:14.676Z,101674.50
2019-01-21T00:05:43.944Z,101675.45
2019-01-21T00:08:13.620Z,101670.08
2019-01-21T00:10:43.216Z,101666.20
2019-01-21T00:13:12.813Z,101662.70
2019-01-21T00:15:42.547Z,101667.91
2019-01-21T00:18:12.245Z,101669.81
2019-01-21T00:20:45.111Z,101670.87
2019-01-21T00:23:14.741Z,101676.97
2019-01-21T00:25:44.337Z,101677.11
2019-01-21T00:28:13.932Z,101675.64
2019-01-21T00:30:43.535Z,101678.80
2019-01-21T00:33:13.135Z,101681.73
2019-01-21T00:35:42.748Z,101682.20
2019-01-21T00:38:12.411Z,101681.31
2019-01-21T00:40:42.386Z,101683.61
2019-01-21T00:43:11.974Z,101689.66
2019-01-21T00:45:41.571Z,101692.75
2019-01-21T00:48:13.371Z,101697.59
2019-01-21T00:50:46.536Z,101706.95
2019-01-21T00:53:19.502Z,101699.80
2019-01-21T00:55:49.056Z,101696.81
2019-01-21T00:58:18.658Z,101700.34
2019-01-21T01:00:48.253Z,101704.41
2019-01-21T01:03:17.848Z,101701.01
2019-01-21T01:05:47.445Z,101702.38
2019-01-21T01:08:17.048Z,101701.19
2019-01-21T01:10:46.643Z,101704.17
2019-01-21T01:13:16.249Z,101708.05
2019-01-21T01:15:45.963Z,101709.16
2019-01-21T01:18:15.571Z,101710.93
2019-01-21T01:20:45.157Z,101709.23
2019-01-21T01:23:14.828Z,101704.66
2019-01-21T01:25:44.433Z,101707.17
2019-01-21T01:28:15.670Z,101713.13
2019-01-21T01:30:45.267Z,101719.00
2019-01-21T01:33:14.865Z,101709.97
2019-01-21T01:35:44.467Z,101710.30
2019-01-21T01:38:14.067Z,101705.69
2019-01-21T01:40:45.835Z,101714.53
2019-01-21T01:43:15.500Z,101713.68
2019-01-21T01:45:45.095Z,101709.44
2019-01-21T01:48:14.688Z,101709.03
2019-01-21T01:50:44.281Z,101708.22
2019-01-21T01:53:13.877Z,101706.22
2019-01-21T01:55:43.545Z,101702.59
2019-01-21T01:58:13.129Z,101706.94
2019-01-21T02:00:42.727Z,101702.48
2019-01-21T02:03:12.332Z,101702.01
2019-01-21T02:05:42.096Z,101710.47
2019-01-21T02:08:11.750Z,101707.98
2019-01-21T02:10:41.351Z,101702.11
2019-01-21T02:13:10.946Z,101705.55
2019-01-21T02:15:40.911Z,101699.66
2019-01-21T02:18:10.579Z,101702.80
2019-01-21T02:20:40.257Z,101701.52
2019-01-21T02:23:11.987Z,101701.17
2019-01-21T02:25:47.551Z,101703.76
2019-01-21T02:28:22.925Z,101702.33
2019-01-21T02:31:30.877Z,101702.22
2019-01-21T02:34:09.517Z,101700.04
2019-01-21T02:37:02.191Z,101700.19
2019-01-21T02:39:50.112Z,101700.90
2019-01-21T02:42:34.791Z,101703.27
2019-01-21T02:45:13.572Z,101691.23
2019-01-21T02:47:49.219Z,101695.11
2019-01-21T02:50:34.007Z,101696.62
2019-01-21T02:53:18.910Z,101694.05
2019-01-21T02:55:54.867Z,101694.05
2019-01-21T02:58:39.575Z,101691.80
2019-01-21T03:01:27.282Z,101690.35
2019-01-21T03:04:22.811Z,101691.42
2019-01-21T03:07:01.334Z,101695.14
2019-01-21T03:09:46.158Z,101694.33
2019-01-21T03:12:24.786Z,101689.34
2019-01-21T03:15:28.109Z,101693.52
2019-01-21T03:18:15.802Z,101695.87
2019-01-21T03:21:07.437Z,101692.70
2019-01-21T03:24:13.805Z,101699.02
2019-01-21T03:26:52.588Z,101696.64
2019-01-21T03:29:46.634Z,101694.23
2019-01-21T03:32:39.202Z,101692.81
2019-01-21T03:35:20.856Z,101695.69
2019-01-21T03:37:59.973Z,101693.17
2019-01-21T03:40:44.952Z,101690.47
2019-01-21T03:43:50.889Z,101693.20
2019-01-21T03:46:38.839Z,101686.09
2019-01-21T03:49:17.740Z,101689.73
2019-01-21T03:52:19.587Z,101694.41
2019-01-21T03:54:50.266Z,101690.87
2019-01-21T03:57:23.129Z,101690.36
2019-01-21T04:00:04.752Z,101692.58
2019-01-21T04:02:58.032Z,101698.45
2019-01-21T04:05:30.887Z,101692.88
2019-01-21T04:08:09.821Z,101692.33
2019-01-21T04:10:59.285Z,101696.75
2019-01-21T04:13:43.603Z,101694.58
2019-01-21T04:16:19.283Z,101699.08
2019-01-21T04:18:54.962Z,101699.97
2019-01-21T04:21:36.827Z,101696.91
2019-01-21T04:24:32.183Z,101703.52
2019-01-21T04:27:07.624Z,101700.60
2019-01-21T04:29:59.945Z,101699.63
2019-01-21T04:32:41.464Z,101702.44
2019-01-21T04:35:14.322Z,101702.63
2019-01-21T04:37:56.096Z,101704.30
2019-01-21T04:40:50.138Z,101700.98
2019-01-21T04:43:34.907Z,101709.42
2019-01-21T04:46:28.813Z,101701.94
2019-01-21T04:49:07.755Z,101700.28
2019-01-21T04:52:10.652Z,101701.09
2019-01-21T04:54:52.502Z,101706.14
2019-01-21T04:57:34.137Z,101698.88
2019-01-21T05:00:09.835Z,101702.49
2019-01-21T05:03:11.875Z,101701.05
2019-01-21T05:05:59.961Z,101703.12
2019-01-21T05:08:44.957Z,101700.13
2019-01-21T05:11:34.423Z,101697.73
2019-01-21T05:14:13.401Z,101701.09
2019-01-21T05:17:03.068Z,101701.79
2019-01-21T05:19:44.982Z,101698.80
2019-01-21T05:22:27.096Z,101698.25
2019-01-21T05:25:12.140Z,101698.17
2019-01-21T05:27:53.787Z,101698.31
2019-01-21T05:30:29.642Z,101699.30
2019-01-21T05:33:11.156Z,101692.01
2019-01-21T05:36:01.965Z,101681.50
2019-01-21T05:38:43.845Z,101688.07
2019-01-21T05:41:19.300Z,101689.84
2019-01-21T05:44:10.530Z,101694.19
2019-01-21T05:46:49.017Z,101688.33
2019-01-21T05:49:21.905Z,101696.08
2019-01-21T05:52:00.695Z,101690.50
2019-01-21T05:55:06.851Z,101695.00
2019-01-21T05:57:48.358Z,101691.20
2019-01-21T06:00:42.148Z,101698.46
2019-01-21T06:03:30.092Z,101701.73
2019-01-21T06:06:20.717Z,101698.75
2019-01-21T06:09:22.505Z,101699.30
2019-01-21T06:12:01.665Z,101699.30
2019-01-21T06:14:39.137Z,101698.19
2019-01-21T06:17:24.155Z,101697.79
2019-01-21T06:20:15.345Z,101698.97
2019-01-21T06:23:06.312Z,101697.08
2019-01-21T06:25:41.905Z,101707.26
2019-01-21T06:28:20.591Z,101702.31
2019-01-21T06:31:01.807Z,101700.88
2019-01-21T06:33:46.513Z,101702.08
2019-01-21T06:36:22.089Z,101703.38
2019-01-21T06:39:19.206Z,101701.61
2019-01-21T06:41:52.091Z,101707.30
2019-01-21T06:44:36.281Z,101705.00
2019-01-21T06:47:11.912Z,101707.78
2019-01-21T06:49:44.807Z,101720.39
2019-01-21T06:52:24.008Z,101713.06
2019-01-21T06:55:14.603Z,101717.13
2019-01-21T06:58:02.836Z,101726.14
2019-01-21T07:00:44.825Z,101726.55
2019-01-21T07:03:38.758Z,101725.86
2019-01-21T07:06:32.566Z,101730.01
2019-01-21T07:09:23.288Z,101732.63
2019-01-21T07:12:01.774Z,101739.26
2019-01-21T07:14:46.579Z,101738.16
2019-01-21T07:17:28.665Z,101735.86
2019-01-21T07:20:21.222Z,101736.95
2019-01-21T07:22:54.125Z,101738.69
2019-01-21T07:25:45.100Z,101742.16
2019-01-21T07:28:23.617Z,101743.03
2019-01-21T07:30:56.488Z,101743.41
2019-01-21T07:33:46.225Z,101744.88
2019-01-21T07:36:24.946Z,101743.43
2019-01-21T07:39:18.764Z,101743.83
2019-01-21T07:41:51.623Z,101742.81
2019-01-21T07:44:36.153Z,101753.60
2019-01-21T07:47:21.152Z,101752.03
2019-01-21T07:50:15.280Z,101756.01
2019-01-21T07:53:15.031Z,101751.83
2019-01-21T07:55:59.984Z,101751.45
2019-01-21T07:58:47.953Z,101753.43
2019-01-21T08:01:26.895Z,101755.48
2019-01-21T08:04:11.537Z,101752.45
2019-01-21T08:06:59.278Z,101764.92
2019-01-21T08:09:35.081Z,101756.41
2019-01-21T08:12:24.431Z,101762.55
2019-01-21T08:14:59.889Z,101759.44
2019-01-21T08:17:52.635Z,101761.36
2019-01-21T08:20:28.230Z,101771.02
2019-01-21T08:23:25.846Z,101761.27
2019-01-21T08:26:16.229Z,101765.52
2019-01-21T08:28:59.052Z,101762.05
2019-01-21T08:31:43.597Z,101757.70
2019-01-21T08:34:19.330Z,101761.05
2019-01-21T08:37:23.963Z,101764.05
2019-01-21T08:40:37.147Z,101760.04
2019-01-21T08:43:25.224Z,101767.28
2019-01-21T08:49:37.181Z,101761.91
2019-01-21T08:52:12.623Z,101764.05
2019-01-21T08:55:26.702Z,101770.19
2019-01-21T09:01:39.578Z,101773.17
2019-01-21T09:04:20.666Z,101775.08
2019-01-21T09:06:53.532Z,101777.47
2019-01-21T09:09:26.398Z,101788.25
2019-01-21T09:12:10.462Z,101775.16
2019-01-21T09:14:55.105Z,101785.86
2019-01-21T09:17:33.534Z,101782.62
2019-01-21T09:20:24.365Z,101784.21
2019-01-21T09:23:20.570Z,101778.58
2019-01-21T09:26:14.034Z,101781.91
2019-01-21T09:29:21.194Z,101784.12
2019-01-21T09:32:14.559Z,101777.52
2019-01-21T09:34:47.426Z,101780.66
2019-01-21T09:37:26.419Z,101782.08
2019-01-21T09:40:12.243Z,101783.72
2019-01-21T09:43:07.640Z,101776.57
2019-01-21T09:46:01.406Z,101774.40
2019-01-21T09:48:30.068Z,101768.09
2019-01-21T09:51:02.326Z,101764.23
2019-01-21T09:53:32.077Z,101764.63
2019-01-21T09:56:01.831Z,101759.73
2019-01-21T09:58:32.065Z,101760.25
2019-01-21T10:01:57.124Z,101759.91
2019-01-21T10:04:48.502Z,101756.41
2019-01-21T10:11:03.343Z,101746.27
2019-01-21T10:13:50.781Z,101740.94
2019-01-21T10:16:46.236Z,101744.81
2019-01-21T10:19:28.038Z,101742.83
2019-01-21T10:22:29.180Z,101738.45
2019-01-21T10:26:02.849Z,101738.13
2019-01-21T10:28:56.888Z,101733.72
2019-01-21T10:31:40.007Z,101734.64
2019-01-21T10:35:07.558Z,101723.97
2019-01-21T10:38:11.465Z,101728.24
2019-01-21T10:41:12.385Z,101724.33
2019-01-21T10:43:50.595Z,101714.63
2019-01-21T10:46:45.701Z,101717.00
2019-01-21T10:50:03.584Z,101718.94
2019-01-21T10:53:02.976Z,101710.00
2019-01-21T10:56:07.273Z,101705.13
2019-01-21T10:59:17.673Z,101695.61
2019-01-21T11:02:11.431Z,101695.66
2019-01-21T11:05:14.412Z,101700.62
2019-01-21T11:08:05.947Z,101707.91
2019-01-21T11:11:13.356Z,101700.57
2019-01-21T11:14:07.909Z,101700.57
2019-01-21T11:17:10.001Z,101695.41
2019-01-21T11:20:53.987Z,101699.36
2019-01-21T11:24:13.551Z,101701.94
2019-01-21T11:27:34.032Z,101694.48
2019-01-21T11:30:36.820Z,101689.73
2019-01-21T11:33:41.594Z,101683.16
2019-01-21T11:36:32.914Z,101682.48
2019-01-21T11:39:34.747Z,101666.54
2019-01-21T11:45:25.305Z,101682.83
2019-01-21T11:51:23.846Z,101685.46
2019-01-21T11:54:31.551Z,101677.13
2019-01-21T11:57:20.339Z,101666.25
2019-01-21T12:00:14.168Z,101674.75
2019-01-21T12:03:16.095Z,101675.97
2019-01-21T12:06:14.566Z,101675.48
2019-01-21T12:08:55.652Z,101666.05
2019-01-21T12:11:48.496Z,101668.63
2019-01-21T12:14:33.094Z,101659.63
2019-01-21T12:17:28.539Z,101651.27
2019-01-21T12:20:18.154Z,101654.98
2019-01-21T12:23:26.624Z,101651.11
2019-01-21T12:26:39.198Z,101645.36
2019-01-21T12:29:43.712Z,101644.73
2019-01-21T12:32:37.058Z,101633.61
2019-01-21T12:35:16.560Z,101634.23
2019-01-21T12:38:06.512Z,101631.08
2019-01-21T12:40:58.688Z,101626.47
2019-01-21T12:44:15.768Z,101627.09
2019-01-21T12:46:45.699Z,101625.88
2019-01-21T12:49:27.321Z,101622.52
2019-01-21T12:52:18.002Z,101619.83
2019-01-21T12:55:20.452Z,101619.83
2019-01-21T12:58:15.154Z,101615.34
2019-01-21T13:01:15.133Z,101610.98
2019-01-21T13:04:10.496Z,101608.12
2019-01-21T13:06:54.966Z,101599.72
2019-01-21T13:09:37.652Z,101611.83
2019-01-21T13:12:43.351Z,101612.64
2019-01-21T13:15:35.070Z,101607.08
2019-01-21T13:18:17.727Z,101605.09
2019-01-21T13:21:22.460Z,101607.53
2019-01-21T13:24:51.058Z,101603.66
2019-01-21T13:27:20.346Z,101602.52
2019-01-21T13:30:09.066Z,101597.55
2019-01-21T13:33:13.767Z,101591.98
2019-01-21T13:36:25.449Z,101591.34
2019-01-21T13:39:11.378Z,101587.73
2019-01-21T13:41:44.248Z,101582.95
2019-01-21T13:44:33.797Z,101583.91
2019-01-21T13:47:15.667Z,101579.08
2019-01-21T13:49:54.357Z,101586.63
2019-01-21T13:52:32.857Z,101583.72
2019-01-21T13:55:20.586Z,101580.88
2019-01-21T13:58:18.982Z,101583.94
2019-01-21T14:00:54.670Z,101585.23
2019-01-21T14:03:30.230Z,101590.02
2019-01-21T14:06:30.640Z,101595.80
2019-01-21T14:09:06.449Z,101588.41
2019-01-21T14:11:42.219Z,101584.86
2019-01-21T14:14:17.741Z,101575.50
2019-01-21T14:17:02.314Z,101573.73
2019-01-21T14:19:38.207Z,101577.45
2019-01-21T14:22:20.309Z,101575.32
2019-01-21T14:24:56.313Z,101574.66
2019-01-21T14:27:54.294Z,101573.81
2019-01-21T14:30:32.923Z,101566.07
2019-01-21T14:33:11.514Z,101556.64
2019-01-21T14:35:50.444Z,101559.70
2019-01-21T14:38:38.518Z,101550.02
2019-01-21T14:41:17.334Z,101545.19
2019-01-21T14:44:10.109Z,101554.43
2019-01-21T14:46:48.907Z,101558.19
2019-01-21T14:49:27.492Z,101553.10
2019-01-21T14:52:22.873Z,101561.86
2019-01-21T14:55:01.655Z,101561.60
2019-01-21T14:57:34.557Z,101560.75
2019-01-21T15:00:22.553Z,101564.63
2019-01-21T15:02:58.259Z,101566.17
2019-01-21T15:06:03.040Z,101564.89
2019-01-21T15:08:35.918Z,101560.98
2019-01-21T15:11:14.631Z,101552.36
2019-01-21T15:14:02.800Z,101552.83
2019-01-21T15:16:53.163Z,101565.53
2019-01-21T15:19:26.238Z,101559.42
2019-01-21T15:22:01.710Z,101557.80
2019-01-21T15:25:00.416Z,101553.13
2019-01-21T15:27:36.337Z,101546.20
2019-01-21T15:30:29.087Z,101532.16
2019-01-21T15:33:07.957Z,101538.94
2019-01-21T15:35:57.766Z,101533.07
2019-01-21T15:38:45.391Z,101530.20
2019-01-21T15:41:40.908Z,101534.00
2019-01-21T15:44:14.071Z,101522.00
2019-01-21T15:47:15.545Z,101518.34
2019-01-21T15:53:07.779Z,101530.55
2019-01-21T15:55:56.062Z,101527.44
2019-01-21T15:58:37.771Z,101529.46
2019-01-21T16:01:27.339Z,101533.95
2019-01-21T16:04:17.122Z,101526.96
2019-01-21T16:06:56.069Z,101528.53
2019-01-21T16:09:44.341Z,101523.25
2019-01-21T16:12:29.397Z,101524.34
2019-01-21T16:15:11.242Z,101515.25
2019-01-21T16:17:53.345Z,101522.50
2019-01-21T16:24:01.112Z,101523.59
2019-01-21T16:26:38.869Z,101520.20
2019-01-21T16:29:47.781Z,101522.23
2019-01-21T16:32:18.950Z,101521.82
2019-01-21T16:35:34.024Z,101525.00
2019-01-21T16:38:08.129Z,101531.70
2019-01-21T16:41:21.036Z,101535.65
2019-01-21T16:44:03.558Z,101529.48
2019-01-21T16:46:34.432Z,101530.44
2019-01-21T16:49:13.371Z,101528.31
2019-01-21T16:51:50.777Z,101527.91
2019-01-21T16:54:38.903Z,101530.44
2019-01-21T16:57:18.797Z,101537.20
2019-01-21T16:59:59.602Z,101535.17
2019-01-21T17:02:29.260Z,101537.82
2019-01-21T17:04:58.878Z,101532.59
2019-01-21T17:07:30.165Z,101535.72
2019-01-21T17:09:59.772Z,101531.91
2019-01-21T17:12:29.652Z,101531.98
2019-01-21T17:15:06.721Z,101520.87
2019-01-21T17:17:38.176Z,101524.00
2019-01-21T17:20:22.572Z,101521.95
2019-01-21T17:22:58.623Z,101522.91
2019-01-21T17:25:29.353Z,101525.88
2019-01-21T17:28:18.279Z,101520.73
2019-01-21T17:31:19.281Z,101520.33
2019-01-21T17:34:05.000Z,101522.50
2019-01-21T17:36:41.746Z,101525.08
2019-01-21T17:39:24.593Z,101522.98
2019-01-21T17:41:54.775Z,101520.80
2019-01-21T17:44:27.512Z,101516.72
2019-01-21T17:47:04.505Z,101513.21
2019-01-21T17:49:36.808Z,101498.08
2019-01-21T17:52:21.129Z,101494.77
2019-01-21T17:55:07.213Z,101491.98
2019-01-21T17:57:37.370Z,101491.45
2019-01-21T18:00:18.775Z,101488.07
2019-01-21T18:05:51.082Z,101477.41
2019-01-21T18:08:29.577Z,101482.62
2019-01-21T18:11:10.503Z,101482.81
2019-01-21T18:13:49.971Z,101473.32
2019-01-21T18:16:35.105Z,101465.67
2019-01-21T18:19:16.702Z,101459.99
2019-01-21T18:21:46.004Z,101454.77
2019-01-21T18:24:22.377Z,101456.39
2019-01-21T18:27:14.483Z,101450.97
2019-01-21T18:29:43.857Z,101446.63
2019-01-21T18:32:13.156Z,101441.70
2019-01-21T18:34:42.462Z,101445.48
2019-01-21T18:37:11.839Z,101439.75
2019-01-21T18:39:41.178Z,101441.77
2019-01-21T18:42:10.566Z,101436.02
2019-01-21T18:44:39.961Z,101435.62
2019-01-21T18:47:09.261Z,101436.42
2019-01-21T18:49:39.004Z,101439.12
2019-01-21T18:52:08.425Z,101439.08
2019-01-21T18:54:37.722Z,101433.37
2019-01-21T18:57:07.014Z,101433.98
2019-01-21T18:59:36.324Z,101431.22
2019-01-21T19:02:05.637Z,101430.53
2019-01-21T19:04:35.032Z,101425.30
2019-01-21T19:07:54.774Z,101427.95
2019-01-21T19:10:20.246Z,101422.47
2019-01-21T19:12:49.566Z,101421.23
2019-01-21T19:15:34.805Z,101429.11
2019-01-21T19:18:18.165Z,101422.38
2019-01-21T19:23:55.060Z,101422.85
2019-01-21T19:29:22.989Z,101425.17
2019-01-21T19:31:49.944Z,101425.17
2019-01-21T19:34:19.400Z,101425.91
2019-01-21T19:36:48.896Z,101430.10
2019-01-21T19:39:18.331Z,101427.20
2019-01-21T19:41:47.829Z,101429.22
2019-01-21T19:44:20.490Z,101431.75
2019-01-21T19:46:49.796Z,101430.80
2019-01-21T19:49:21.158Z,101434.85
2019-01-21T19:51:50.566Z,101431.53
2019-01-21T19:54:19.858Z,101437.83
2019-01-21T19:56:49.440Z,101434.04
2019-01-21T19:59:18.949Z,101440.14
2019-01-21T20:01:48.285Z,101437.13
2019-01-21T20:04:17.757Z,101446.33
2019-01-21T20:06:50.504Z,101444.96
2019-01-21T20:09:20.152Z,101449.97
2019-01-21T20:11:55.107Z,101459.72
2019-01-21T20:14:47.107Z,101461.81
2019-01-21T20:17:11.503Z,101448.83
2019-01-21T20:19:41.004Z,101446.03
2019-01-21T20:22:11.342Z,101447.66
2019-01-21T20:24:40.731Z,101445.60
2019-01-21T20:27:10.018Z,101438.57
2019-01-21T20:29:39.318Z,101435.25
2019-01-21T20:32:08.681Z,101437.71
2019-01-21T20:34:37.985Z,101437.52
2019-01-21T20:37:07.283Z,101427.77
2019-01-21T20:39:36.574Z,101430.67
2019-01-21T20:42:05.866Z,101430.88
2019-01-21T20:44:35.178Z,101433.74
2019-01-21T20:47:04.595Z,101434.47
2019-01-21T20:49:33.932Z,101427.64
2019-01-21T20:52:03.316Z,101426.73
2019-01-21T20:54:32.893Z,101419.02
2019-01-21T20:57:02.287Z,101415.77
2019-01-21T20:59:31.677Z,101406.77
2019-01-21T21:02:00.982Z,101403.99
2019-01-21T21:04:31.988Z,101411.16
2019-01-21T21:07:10.033Z,101401.70
2019-01-21T21:09:39.906Z,101405.97
2019-01-21T21:12:09.504Z,101400.27
2019-01-21T21:14:38.881Z,101402.83
2019-01-21T21:17:15.650Z,101400.27
2019-01-21T21:19:44.959Z,101405.89
2019-01-21T21:22:20.837Z,101403.11
2019-01-21T21:24:45.410Z,101398.63
2019-01-21T21:27:14.694Z,101397.62
2019-01-21T21:29:44.306Z,101392.47
2019-01-21T21:32:17.101Z,101393.63
2019-01-21T21:34:46.476Z,101387.05
2019-01-21T21:37:15.764Z,101383.19
2019-01-21T21:39:45.076Z,101388.05
2019-01-21T21:42:22.822Z,101389.30
2019-01-21T21:44:52.124Z,101390.22
2019-01-21T21:47:21.496Z,101392.47
2019-01-21T21:49:51.685Z,101388.20
2019-01-21T21:52:27.613Z,101382.46
2019-01-21T21:54:52.112Z,101378.38
2019-01-21T21:57:21.406Z,101379.61
2019-01-21T21:59:50.769Z,101376.56
2019-01-21T22:02:20.137Z,101376.16
2019-01-21T22:04:49.815Z,101371.82
2019-01-21T22:07:19.112Z,101372.83
2019-01-21T22:09:48.410Z,101373.23
2019-01-21T22:12:17.836Z,101377.04
2019-01-21T22:14:47.217Z,101373.51
2019-01-21T22:17:16.527Z,101375.59
2019-01-21T22:19:45.827Z,101371.13
2019-01-21T22:22:15.237Z,101374.27
2019-01-21T22:27:23.928Z,101373.10
2019-01-21T22:29:55.336Z,101377.64
2019-01-21T22:35:09.079Z,101375.70
2019-01-21T22:37:38.379Z,101369.59
2019-01-21T22:40:11.217Z,101361.28
2019-01-21T22:43:34.144Z,101360.88
2019-01-21T22:49:41.286Z,101355.45
2019-01-21T22:55:10.431Z,101342.11
2019-01-21T22:58:04.425Z,101338.58
2019-01-21T23:00:54.184Z,101338.50
2019-01-21T23:04:03.182Z,101329.05
2019-01-21T23:06:22.936Z,101317.73
2019-01-21T23:08:52.229Z,101325.20
2019-01-21T23:11:21.538Z,101316.17
2019-01-21T23:13:50.830Z,101314.83
2019-01-21T23:16:20.415Z,101309.49
2019-01-21T23:18:49.777Z,101306.92
2019-01-21T23:21:19.101Z,101308.73
2019-01-21T23:23:48.401Z,101302.59
2019-01-21T23:26:17.710Z,101309.62
2019-01-21T23:28:47.390Z,101311.80
2019-01-21T23:31:16.692Z,101309.19
2019-01-21T23:33:45.997Z,101311.52
2019-01-21T23:36:15.368Z,101311.92
2019-01-21T23:38:44.732Z,101313.52
2019-01-21T23:41:14.034Z,101305.48
2019-01-21T23:43:43.335Z,101296.16
2019-01-21T23:46:12.627Z,101293.70
2019-01-21T23:48:41.938Z,101288.92
2019-01-21T23:51:11.217Z,101285.92
2019-01-21T23:53:40.588Z,101282.47
2019-01-21T23:56:09.952Z,101293.52
2019-01-21T23:58:39.241Z,101289.78
